PWSweather.com
Personal Weather Stations
Station Observations
PENICUIKWS
PenicuikGB

PenicuikGB

Lat: 55.830932, Lon: -3.224533000000065

Elevation: 166

Station Type: Fine Offset

http://weather.penicuik.org

High Low Average
Temperature 86.9°F30.5°C 54.5°F12.5°C 71.3°F21.8°C
Dew Point 66.6°F19.2°C 51.0°F10.6°C 58.2°F14.6°C
Winds 9.1 mph 14.6 kmh Calm Calm 3.0 mph SSE4.8 kmh SSE
Wind Gusts 15.2 mph24.5 kmh -- 5.0 mph8.0 kmh
Humidity 99% 30% 68%
Pressure 29.85 in1010.8 mb 29.60 in1002.4 mb -
Precipitation 0.02 in0.5 mm - -
Hour Temp Dew Point Humidity Winds Wind Gusts Pressure Precip Precip Rate Daily Precip Total
12:00 AM 59.9°F15.5°C 58.8°F14.9°C 96% 0.1 mph E0.2 kmh E 0.7 mph1.1 kmh 29.84 in1010.5 mb 0.00 in0.0 mm 0.00 in0.0 mm 0.00 in0.0 mm
12:15 AM 59.5°F15.3°C 58.4°F14.7°C 96% 0.3 mph SW0.5 kmh SW 1.6 mph2.6 kmh 29.84 in1010.5 mb 0.00 in0.0 mm 0.00 in0.0 mm 0.00 in0.0 mm
12:30 AM 59.4°F15.2°C 58.2°F14.6°C 96% 0.2 mph SW0.3 kmh SW 0.7 mph1.1 kmh 29.84 in1010.5 mb 0.00 in0.0 mm 0.00 in0.0 mm 0.00 in0.0 mm
12:45 AM 59.4°F15.2°C 58.5°F14.7°C 97% 0.5 mph SW0.8 kmh SW 1.6 mph2.6 kmh 29.85 in1010.8 mb 0.00 in0.0 mm 0.00 in0.0 mm 0.00 in0.0 mm
01:00 AM 58.8°F14.9°C 58.3°F14.6°C 98% Calm Calm -- 29.84 in1010.5 mb 0.00 in0.0 mm 0.00 in0.0 mm 0.00 in0.0 mm
01:15 AM 58.5°F14.7°C 57.9°F14.4°C 98% Calm Calm -- 29.85 in1010.8 mb 0.00 in0.0 mm 0.00 in0.0 mm 0.00 in0.0 mm
01:30 AM 57.7°F14.3°C 57.2°F14.0°C 98% Calm Calm -- 29.84 in1010.5 mb 0.00 in0.0 mm 0.00 in0.0 mm 0.00 in0.0 mm
01:45 AM 57.0°F13.9°C 56.8°F13.8°C 99% Calm Calm -- 29.84 in1010.5 mb 0.00 in0.0 mm 0.00 in0.0 mm 0.00 in0.0 mm
02:00 AM 57.0°F13.9°C 56.8°F13.8°C 99% Calm Calm -- 29.84 in1010.5 mb 0.00 in0.0 mm 0.00 in0.0 mm 0.00 in0.0 mm
02:15 AM 56.7°F13.7°C 56.4°F13.6°C 99% 0.1 mph SW0.2 kmh SW 0.7 mph1.1 kmh 29.84 in1010.5 mb 0.00 in0.0 mm 0.00 in0.0 mm 0.00 in0.0 mm
02:30 AM 56.3°F13.5°C 56.0°F13.3°C 99% 0.1 mph SSW0.2 kmh SSW 0.7 mph1.1 kmh 29.83 in1010.2 mb 0.00 in0.0 mm 0.00 in0.0 mm 0.00 in0.0 mm
02:45 AM 55.9°F13.3°C 55.7°F13.2°C 99% 0.3 mph SSW0.5 kmh SSW 1.6 mph2.6 kmh 29.83 in1010.2 mb 0.00 in0.0 mm 0.00 in0.0 mm 0.00 in0.0 mm
03:00 AM 55.9°F13.3°C 55.7°F13.2°C 99% 0.9 mph WSW1.4 kmh WSW 1.6 mph2.6 kmh 29.82 in1009.8 mb 0.00 in0.0 mm 0.00 in0.0 mm 0.00 in0.0 mm
03:15 AM 55.9°F13.3°C 55.7°F13.2°C 99% 0.5 mph WSW0.8 kmh WSW 1.6 mph2.6 kmh 29.82 in1009.8 mb 0.00 in0.0 mm 0.00 in0.0 mm 0.00 in0.0 mm
03:30 AM 55.8°F13.2°C 55.5°F13.1°C 99% 0.2 mph SSW0.3 kmh SSW 2.2 mph3.5 kmh 29.82 in1009.8 mb 0.00 in0.0 mm 0.00 in0.0 mm 0.00 in0.0 mm
03:45 AM 55.4°F13.0°C 55.1°F12.8°C 99% Calm Calm -- 29.82 in1009.8 mb 0.00 in0.0 mm 0.00 in0.0 mm 0.00 in0.0 mm
04:00 AM 55.2°F12.9°C 54.4°F12.4°C 97% 0.6 mph S1.0 kmh S 1.6 mph2.6 kmh 29.82 in1009.8 mb 0.00 in0.0 mm 0.00 in0.0 mm 0.00 in0.0 mm
04:15 AM 54.9°F12.7°C 54.0°F12.2°C 97% 0.2 mph S0.3 kmh S 1.6 mph2.6 kmh 29.82 in1009.8 mb 0.00 in0.0 mm 0.00 in0.0 mm 0.00 in0.0 mm
04:30 AM 54.5°F12.5°C 53.7°F12.1°C 97% 0.7 mph SSW1.1 kmh SSW 1.6 mph2.6 kmh 29.82 in1009.8 mb 0.00 in0.0 mm 0.00 in0.0 mm 0.00 in0.0 mm
04:45 AM 54.5°F12.5°C 53.7°F12.1°C 97% 0.2 mph WSW0.3 kmh WSW 0.7 mph1.1 kmh 29.83 in1010.2 mb 0.00 in0.0 mm 0.00 in0.0 mm 0.00 in0.0 mm
05:00 AM 54.9°F12.7°C 54.0°F12.2°C 97% 0.5 mph S0.8 kmh S 1.6 mph2.6 kmh 29.83 in1010.2 mb 0.00 in0.0 mm 0.00 in0.0 mm 0.00 in0.0 mm
05:15 AM 54.5°F12.5°C 53.7°F12.1°C 97% 0.1 mph NNE0.2 kmh NNE 0.7 mph1.1 kmh 29.84 in1010.5 mb 0.00 in0.0 mm 0.00 in0.0 mm 0.00 in0.0 mm
05:30 AM 57.2°F14.0°C 56.9°F13.8°C 99% Calm Calm -- 29.83 in1010.2 mb 0.00 in0.0 mm 0.00 in0.0 mm 0.00 in0.0 mm
05:45 AM 59.9°F15.5°C 59.3°F15.2°C 98% 1.0 mph S1.6 kmh S 1.6 mph2.6 kmh 29.83 in1010.2 mb 0.01 in0.3 mm 0.04 in1.0 mm 0.01 in0.3 mm
06:00 AM 66.0°F18.9°C 64.9°F18.3°C 96% Calm Calm -- 29.83 in1010.2 mb 0.01 in0.3 mm 0.00 in0.0 mm 0.01 in0.3 mm
06:15 AM 67.6°F19.8°C 64.0°F17.8°C 88% 0.9 mph S1.4 kmh S 1.6 mph2.6 kmh 29.84 in1010.5 mb 0.01 in0.3 mm 0.00 in0.0 mm 0.01 in0.3 mm
06:30 AM 68.5°F20.3°C 60.7°F15.9°C 76% 1.5 mph S2.4 kmh S 2.2 mph3.5 kmh 29.83 in1010.2 mb 0.01 in0.3 mm 0.00 in0.0 mm 0.01 in0.3 mm
06:45 AM 70.3°F21.3°C 61.3°F16.3°C 73% 0.9 mph S1.4 kmh S 1.6 mph2.6 kmh 29.83 in1010.2 mb 0.00 in0.0 mm 0.00 in0.0 mm 0.01 in0.3 mm
07:00 AM 75.2°F24.0°C 63.1°F17.3°C 66% 0.4 mph S0.6 kmh S 1.6 mph2.6 kmh 29.84 in1010.5 mb 0.00 in0.0 mm 0.00 in0.0 mm 0.01 in0.3 mm
07:15 AM 81.3°F27.4°C 66.6°F19.2°C 61% Calm Calm -- 29.84 in1010.5 mb 0.00 in0.0 mm 0.00 in0.0 mm 0.01 in0.3 mm
07:30 AM 85.5°F29.7°C 65.9°F18.8°C 52% 0.1 mph E0.2 kmh E 0.7 mph1.1 kmh 29.83 in1010.2 mb 0.00 in0.0 mm 0.00 in0.0 mm 0.01 in0.3 mm
07:45 AM 82.4°F28.0°C 57.0°F13.9°C 42% 1.7 mph NNE2.7 kmh NNE 3.8 mph6.1 kmh 29.84 in1010.5 mb 0.00 in0.0 mm 0.00 in0.0 mm 0.01 in0.3 mm
08:00 AM 77.0°F25.0°C 59.1°F15.1°C 54% 2.4 mph NNE3.9 kmh NNE 4.5 mph7.2 kmh 29.84 in1010.5 mb 0.00 in0.0 mm 0.00 in0.0 mm 0.01 in0.3 mm
08:15 AM 77.7°F25.4°C 59.8°F15.4°C 54% 2.1 mph NE3.4 kmh NE 4.5 mph7.2 kmh 29.84 in1010.5 mb 0.00 in0.0 mm 0.00 in0.0 mm 0.01 in0.3 mm
08:30 AM 81.9°F27.7°C 60.3°F15.7°C 48% 1.6 mph SSW2.6 kmh SSW 3.1 mph5.0 kmh 29.83 in1010.2 mb 0.00 in0.0 mm 0.00 in0.0 mm 0.01 in0.3 mm
08:45 AM 80.8°F27.1°C 55.6°F13.1°C 42% 2.8 mph SE4.5 kmh SE 4.5 mph7.2 kmh 29.84 in1010.5 mb 0.00 in0.0 mm 0.00 in0.0 mm 0.01 in0.3 mm
09:00 AM 79.5°F26.4°C 55.7°F13.2°C 44% 3.7 mph SSE6.0 kmh SSE 6.9 mph11.1 kmh 29.83 in1010.2 mb 0.00 in0.0 mm 0.00 in0.0 mm 0.01 in0.3 mm
09:15 AM 79.9°F26.6°C 57.9°F14.4°C 47% 3.4 mph SE5.5 kmh SE 7.6 mph12.2 kmh 29.83 in1010.2 mb 0.00 in0.0 mm 0.00 in0.0 mm 0.01 in0.3 mm
09:30 AM 78.3°F25.7°C 57.0°F13.9°C 48% 4.3 mph S6.9 kmh S 6.9 mph11.1 kmh 29.84 in1010.5 mb 0.00 in0.0 mm 0.00 in0.0 mm 0.01 in0.3 mm
09:45 AM 79.0°F26.1°C 57.7°F14.3°C 48% 4.2 mph S6.8 kmh S 6.0 mph9.7 kmh 29.83 in1010.2 mb 0.00 in0.0 mm 0.00 in0.0 mm 0.01 in0.3 mm
10:00 AM 78.6°F25.9°C 57.3°F14.1°C 48% 5.2 mph SSE8.4 kmh SSE 7.6 mph12.2 kmh 29.83 in1010.2 mb 0.00 in0.0 mm 0.00 in0.0 mm 0.01 in0.3 mm
10:15 AM 78.3°F25.7°C 58.1°F14.5°C 50% 4.5 mph S7.2 kmh S 7.6 mph12.2 kmh 29.83 in1010.2 mb 0.00 in0.0 mm 0.00 in0.0 mm 0.01 in0.3 mm
10:30 AM 80.1°F26.7°C 56.8°F13.8°C 45% 5.8 mph S9.3 kmh S 9.2 mph14.8 kmh 29.83 in1010.2 mb 0.00 in0.0 mm 0.00 in0.0 mm 0.01 in0.3 mm
10:45 AM 80.4°F26.9°C 55.9°F13.3°C 43% 5.4 mph SSE8.7 kmh SSE 8.3 mph13.4 kmh 29.83 in1010.2 mb 0.00 in0.0 mm 0.00 in0.0 mm 0.01 in0.3 mm
11:00 AM 81.0°F27.2°C 54.4°F12.4°C 40% 6.0 mph SE9.7 kmh SE 6.9 mph11.1 kmh 29.82 in1009.8 mb 0.00 in0.0 mm 0.00 in0.0 mm 0.01 in0.3 mm
11:15 AM 82.4°F28.0°C 55.0°F12.8°C 39% 7.0 mph S11.3 kmh S 12.1 mph19.5 kmh 29.81 in1009.5 mb 0.00 in0.0 mm 0.00 in0.0 mm 0.01 in0.3 mm
11:30 AM 82.8°F28.2°C 54.6°F12.6°C 38% 7.3 mph S11.7 kmh S 11.4 mph18.3 kmh 29.80 in1009.1 mb 0.00 in0.0 mm 0.00 in0.0 mm 0.01 in0.3 mm
11:45 AM 82.8°F28.2°C 56.7°F13.7°C 41% 6.4 mph SSE10.3 kmh SSE 9.8 mph15.8 kmh 29.80 in1009.1 mb 0.00 in0.0 mm 0.00 in0.0 mm 0.01 in0.3 mm
12:00 PM 82.9°F28.3°C 53.3°F11.8°C 36% 8.2 mph SE13.2 kmh SE 10.7 mph17.2 kmh 29.79 in1008.8 mb 0.00 in0.0 mm 0.00 in0.0 mm 0.01 in0.3 mm
12:15 PM 82.9°F28.3°C 54.8°F12.7°C 38% 8.6 mph SSE13.8 kmh SSE 11.4 mph18.3 kmh 29.79 in1008.8 mb 0.00 in0.0 mm 0.00 in0.0 mm 0.01 in0.3 mm
12:30 PM 84.4°F29.1°C 53.8°F12.1°C 35% 6.0 mph SE9.7 kmh SE 10.7 mph17.2 kmh 29.78 in1008.5 mb 0.00 in0.0 mm 0.00 in0.0 mm 0.01 in0.3 mm
12:45 PM 84.7°F29.3°C 53.3°F11.8°C 34% 7.2 mph SSE11.6 kmh SSE 9.8 mph15.8 kmh 29.77 in1008.1 mb 0.00 in0.0 mm 0.00 in0.0 mm 0.01 in0.3 mm
01:00 PM 83.8°F28.8°C 54.1°F12.3°C 36% 9.1 mph S14.6 kmh S 13.0 mph20.9 kmh 29.78 in1008.5 mb 0.00 in0.0 mm 0.00 in0.0 mm 0.01 in0.3 mm
01:15 PM 84.9°F29.4°C 53.5°F11.9°C 34% 6.5 mph SE10.5 kmh SE 15.2 mph24.5 kmh 29.77 in1008.1 mb 0.00 in0.0 mm 0.00 in0.0 mm 0.01 in0.3 mm
01:30 PM 86.0°F30.0°C 52.8°F11.6°C 32% 5.6 mph SE9.0 kmh SE 9.8 mph15.8 kmh 29.76 in1007.8 mb 0.00 in0.0 mm 0.00 in0.0 mm 0.01 in0.3 mm
01:45 PM 84.4°F29.1°C 52.2°F11.2°C 33% 7.9 mph SE12.7 kmh SE 13.6 mph21.9 kmh 29.76 in1007.8 mb 0.00 in0.0 mm 0.00 in0.0 mm 0.01 in0.3 mm
02:00 PM 85.8°F29.9°C 53.4°F11.9°C 33% 6.5 mph S10.5 kmh S 12.1 mph19.5 kmh 29.77 in1008.1 mb 0.00 in0.0 mm 0.00 in0.0 mm 0.01 in0.3 mm
02:15 PM 86.2°F30.1°C 52.1°F11.2°C 31% 4.3 mph WSW6.9 kmh WSW 8.3 mph13.4 kmh 29.77 in1008.1 mb 0.00 in0.0 mm 0.00 in0.0 mm 0.01 in0.3 mm
02:30 PM 86.9°F30.5°C 52.7°F11.5°C 31% 5.3 mph WSW8.5 kmh WSW 9.2 mph14.8 kmh 29.77 in1008.1 mb 0.00 in0.0 mm 0.00 in0.0 mm 0.01 in0.3 mm
02:45 PM 86.0°F30.0°C 51.0°F10.6°C 30% 6.5 mph E10.5 kmh E 11.4 mph18.3 kmh 29.77 in1008.1 mb 0.00 in0.0 mm 0.00 in0.0 mm 0.01 in0.3 mm
03:00 PM 85.3°F29.6°C 52.1°F11.2°C 32% 4.2 mph S6.8 kmh S 9.2 mph14.8 kmh 29.77 in1008.1 mb 0.00 in0.0 mm 0.00 in0.0 mm 0.01 in0.3 mm
03:15 PM 83.8°F28.8°C 53.3°F11.8°C 35% 4.9 mph SW7.9 kmh SW 8.3 mph13.4 kmh 29.78 in1008.5 mb 0.00 in0.0 mm 0.00 in0.0 mm 0.01 in0.3 mm
03:30 PM 82.0°F27.8°C 58.0°F14.4°C 44% 5.8 mph WSW9.3 kmh WSW 8.3 mph13.4 kmh 29.78 in1008.5 mb 0.00 in0.0 mm 0.00 in0.0 mm 0.01 in0.3 mm
03:45 PM 78.8°F26.0°C 59.2°F15.1°C 51% 4.6 mph WSW7.4 kmh WSW 6.9 mph11.1 kmh 29.78 in1008.5 mb 0.00 in0.0 mm 0.00 in0.0 mm 0.01 in0.3 mm
04:00 PM 77.2°F25.1°C 60.3°F15.7°C 56% 2.8 mph W4.5 kmh W 4.5 mph7.2 kmh 29.77 in1008.1 mb 0.00 in0.0 mm 0.00 in0.0 mm 0.01 in0.3 mm
04:15 PM 77.5°F25.3°C 60.6°F15.9°C 56% 2.3 mph NE3.7 kmh NE 3.8 mph6.1 kmh 29.76 in1007.8 mb 0.00 in0.0 mm 0.00 in0.0 mm 0.01 in0.3 mm
04:30 PM 77.7°F25.4°C 61.3°F16.3°C 57% 1.7 mph SW2.7 kmh SW 3.8 mph6.1 kmh 29.76 in1007.8 mb 0.00 in0.0 mm 0.00 in0.0 mm 0.01 in0.3 mm
04:45 PM 77.7°F25.4°C 60.8°F16.0°C 56% 1.8 mph SSE2.9 kmh SSE 2.2 mph3.5 kmh 29.76 in1007.8 mb 0.00 in0.0 mm 0.00 in0.0 mm 0.01 in0.3 mm
05:00 PM 77.0°F25.0°C 61.1°F16.2°C 58% 2.9 mph W4.7 kmh W 6.0 mph9.7 kmh 29.76 in1007.8 mb 0.00 in0.0 mm 0.00 in0.0 mm 0.01 in0.3 mm
05:15 PM 76.6°F24.8°C 61.3°F16.3°C 59% 1.9 mph NW3.1 kmh NW 3.8 mph6.1 kmh 29.74 in1007.1 mb 0.00 in0.0 mm 0.00 in0.0 mm 0.01 in0.3 mm
05:30 PM 75.9°F24.4°C 61.5°F16.4°C 61% 1.5 mph WSW2.4 kmh WSW 3.8 mph6.1 kmh 29.74 in1007.1 mb 0.00 in0.0 mm 0.00 in0.0 mm 0.01 in0.3 mm
05:45 PM 74.5°F23.6°C 61.1°F16.2°C 63% 1.4 mph WSW2.3 kmh WSW 2.2 mph3.5 kmh 29.74 in1007.1 mb 0.00 in0.0 mm 0.00 in0.0 mm 0.01 in0.3 mm
06:00 PM 73.6°F23.1°C 60.2°F15.7°C 63% 0.7 mph W1.1 kmh W 1.6 mph2.6 kmh 29.74 in1007.1 mb 0.00 in0.0 mm 0.00 in0.0 mm 0.01 in0.3 mm
06:15 PM 73.2°F22.9°C 59.9°F15.5°C 63% 0.1 mph N0.2 kmh N 1.6 mph2.6 kmh 29.73 in1006.8 mb 0.00 in0.0 mm 0.00 in0.0 mm 0.01 in0.3 mm
06:30 PM 71.6°F22.0°C 60.1°F15.6°C 67% 2.5 mph N4.0 kmh N 5.4 mph8.7 kmh 29.73 in1006.8 mb 0.00 in0.0 mm 0.00 in0.0 mm 0.01 in0.3 mm
06:45 PM 71.4°F21.9°C 61.2°F16.2°C 70% 3.0 mph N4.8 kmh N 5.4 mph8.7 kmh 29.73 in1006.8 mb 0.00 in0.0 mm 0.00 in0.0 mm 0.01 in0.3 mm
07:00 PM 71.4°F21.9°C 61.2°F16.2°C 70% 0.8 mph N1.3 kmh N 1.6 mph2.6 kmh 29.73 in1006.8 mb 0.00 in0.0 mm 0.00 in0.0 mm 0.01 in0.3 mm
07:15 PM 71.4°F21.9°C 61.6°F16.4°C 71% 1.4 mph N2.3 kmh N 3.1 mph5.0 kmh 29.72 in1006.4 mb 0.00 in0.0 mm 0.00 in0.0 mm 0.01 in0.3 mm
07:30 PM 71.1°F21.7°C 61.2°F16.2°C 71% 0.3 mph NW0.5 kmh NW 1.6 mph2.6 kmh 29.71 in1006.1 mb 0.00 in0.0 mm 0.00 in0.0 mm 0.01 in0.3 mm
07:45 PM 70.5°F21.4°C 61.1°F16.2°C 72% Calm Calm -- 29.70 in1005.8 mb 0.00 in0.0 mm 0.00 in0.0 mm 0.01 in0.3 mm
08:00 PM 69.8°F21.0°C 61.2°F16.2°C 74% 0.3 mph NW0.5 kmh NW 0.7 mph1.1 kmh 29.70 in1005.8 mb 0.00 in0.0 mm 0.00 in0.0 mm 0.01 in0.3 mm
08:15 PM 69.3°F20.7°C 61.0°F16.1°C 75% 0.4 mph W0.6 kmh W 1.6 mph2.6 kmh 29.70 in1005.8 mb 0.00 in0.0 mm 0.00 in0.0 mm 0.01 in0.3 mm
08:30 PM 68.2°F20.1°C 61.1°F16.2°C 78% 4.0 mph N6.4 kmh N 5.4 mph8.7 kmh 29.70 in1005.8 mb 0.00 in0.0 mm 0.00 in0.0 mm 0.01 in0.3 mm
08:45 PM 67.3°F19.6°C 61.6°F16.4°C 82% 0.5 mph N0.8 kmh N 2.2 mph3.5 kmh 29.70 in1005.8 mb 0.00 in0.0 mm 0.00 in0.0 mm 0.01 in0.3 mm
09:00 PM 66.9°F19.4°C 61.3°F16.3°C 82% 0.2 mph SSE0.3 kmh SSE 2.2 mph3.5 kmh 29.68 in1005.1 mb 0.00 in0.0 mm 0.00 in0.0 mm 0.01 in0.3 mm
09:15 PM 65.8°F18.8°C 61.2°F16.2°C 85% 0.4 mph SSW0.6 kmh SSW 0.7 mph1.1 kmh 29.68 in1005.1 mb 0.00 in0.0 mm 0.00 in0.0 mm 0.01 in0.3 mm
09:30 PM 65.5°F18.6°C 61.5°F16.4°C 87% 0.3 mph SSW0.5 kmh SSW 0.7 mph1.1 kmh 29.68 in1005.1 mb 0.00 in0.0 mm 0.00 in0.0 mm 0.01 in0.3 mm
09:45 PM 66.2°F19.0°C 62.6°F17.0°C 88% 4.1 mph NW6.6 kmh NW 8.3 mph13.4 kmh 29.70 in1005.8 mb 0.00 in0.0 mm 0.00 in0.0 mm 0.01 in0.3 mm
10:00 PM 67.6°F19.8°C 63.3°F17.4°C 86% 5.8 mph SSE9.3 kmh SSE 8.3 mph13.4 kmh 29.69 in1005.4 mb 0.00 in0.0 mm 0.00 in0.0 mm 0.01 in0.3 mm
10:15 PM 67.1°F19.5°C 63.1°F17.3°C 87% 3.1 mph NW5.0 kmh NW 4.5 mph7.2 kmh 29.67 in1004.7 mb 0.00 in0.0 mm 0.00 in0.0 mm 0.01 in0.3 mm
10:30 PM 66.4°F19.1°C 62.7°F17.1°C 88% 5.9 mph SW9.5 kmh SW 13.0 mph20.9 kmh 29.62 in1003.0 mb 0.00 in0.0 mm 0.00 in0.0 mm 0.01 in0.3 mm
10:45 PM 65.8°F18.8°C 62.5°F16.9°C 89% 4.4 mph SE7.1 kmh SE 10.7 mph17.2 kmh 29.61 in1002.7 mb 0.01 in0.3 mm 0.04 in1.0 mm 0.02 in0.5 mm
11:00 PM 64.8°F18.2°C 61.1°F16.2°C 88% 1.5 mph NW2.4 kmh NW 2.2 mph3.5 kmh 29.62 in1003.0 mb 0.01 in0.3 mm 0.00 in0.0 mm 0.02 in0.5 mm
11:15 PM 64.2°F17.9°C 60.6°F15.9°C 88% 0.2 mph SE0.3 kmh SE 1.6 mph2.6 kmh 29.60 in1002.4 mb 0.01 in0.3 mm 0.00 in0.0 mm 0.02 in0.5 mm
11:30 PM 63.7°F17.6°C 60.4°F15.8°C 89% 0.2 mph S0.3 kmh S 0.7 mph1.1 kmh 29.61 in1002.7 mb 0.01 in0.3 mm 0.00 in0.0 mm 0.02 in0.5 mm
11:45 PM 63.7°F17.6°C 60.7°F15.9°C 90% 0.8 mph SW1.3 kmh SW 2.2 mph3.5 kmh 29.61 in1002.7 mb 0.00 in0.0 mm 0.00 in0.0 mm 0.02 in0.5 mm